Time;durP1;ratioP1;P1;durP2;ratioP2;P2;SDS_P1;SDS_P2;PMS_P1;PMS_P2;Temp;Humidity;BMP_temperature;BMP_pressure;BME280_temperature;BME280_humidity;BME280_pressure;Samples;Min_cycle;Max_cycle;Signal;HPM_P1;HPM_P2
2023/08/31 00:02:10;;;;;;;6.15;2.63;;;11.40;99.90;;;;;;5102494;28;20040;-67
2023/08/31 00:04:36;;;;;;;6.88;2.40;;;11.40;99.90;;;;;;5095189;28;20482;-66
2023/08/31 00:07:02;;;;;;;4.80;2.10;;;11.50;99.90;;;;;;5099997;27;20496;-66
2023/08/31 00:09:29;;;;;;;6.93;2.78;;;11.50;99.90;;;;;;5100239;27;20074;-66
2023/08/31 00:11:56;;;;;;;5.57;1.48;;;11.60;99.90;;;;;;5130602;27;20039;-65
2023/08/31 00:14:22;;;;;;;4.47;1.20;;;11.60;99.90;;;;;;5130609;27;20546;-67
2023/08/31 00:16:48;;;;;;;1.92;0.80;;;11.70;99.90;;;;;;5130732;27;20557;-67
2023/08/31 00:19:14;;;;;;;1.88;0.60;;;11.70;99.90;;;;;;5129845;27;20122;-66
2023/08/31 00:21:40;;;;;;;2.78;0.70;;;11.80;99.90;;;;;;5130670;27;20046;-66
2023/08/31 00:24:07;;;;;;;2.58;0.55;;;11.80;99.90;;;;;;5130599;27;20106;-68
2023/08/31 00:26:33;;;;;;;2.78;0.60;;;11.80;99.90;;;;;;5130155;27;20038;-68
2023/08/31 00:28:59;;;;;;;2.85;0.60;;;11.80;99.90;;;;;;5121222;27;20035;-67
2023/08/31 00:31:27;;;;;;;3.13;0.70;;;11.80;99.90;;;;;;5110054;27;20402;-66
2023/08/31 00:33:52;;;;;;;3.58;0.80;;;11.80;99.90;;;;;;5093030;28;20055;-67
2023/08/31 00:36:18;;;;;;;2.47;0.73;;;11.70;99.90;;;;;;5109447;28;20043;-66
2023/08/31 00:38:44;;;;;;;5.00;1.48;;;11.70;99.90;;;;;;5111232;27;20091;-67
2023/08/31 00:41:10;;;;;;;3.83;0.90;;;11.80;99.90;;;;;;5110876;28;20036;-67
2023/08/31 00:43:36;;;;;;;5.35;1.80;;;11.80;99.90;;;;;;5126380;27;20374;-67
2023/08/31 00:46:02;;;;;;;4.57;1.20;;;11.80;99.90;;;;;;5129913;27;20042;-67
2023/08/31 00:48:28;;;;;;;2.75;1.15;;;11.80;99.90;;;;;;5130353;27;20039;-67
2023/08/31 00:50:53;;;;;;;4.53;1.58;;;11.70;99.90;;;;;;5116653;28;20455;-67
2023/08/31 00:53:19;;;;;;;6.82;1.67;;;11.80;99.90;;;;;;5119144;27;20082;-68
2023/08/31 00:55:46;;;;;;;5.55;2.15;;;11.80;99.90;;;;;;5112740;27;20110;-67
2023/08/31 00:58:11;;;;;;;8.10;2.60;;;11.80;99.90;;;;;;5129506;27;20043;-66
2023/08/31 01:00:59;;;;;;;4.53;2.45;;;11.80;99.90;;;;;;5129466;28;20110;-66
2023/08/31 01:04:06;;;;;;;4.45;2.47;;;11.70;99.90;;;;;;5129635;28;20088;-67
2023/08/31 01:06:53;;;;;;;6.97;2.58;;;11.80;99.90;;;;;;5051027;28;20454;-66
2023/08/31 01:09:43;;;;;;;5.93;2.40;;;11.70;99.90;;;;;;5050648;28;20059;-67
2023/08/31 01:12:18;;;;;;;6.55;2.13;;;11.70;99.90;;;;;;5041509;28;20044;-67
2023/08/31 01:14:59;;;;;;;7.80;2.70;;;11.70;99.90;;;;;;5047562;28;20067;-67
2023/08/31 01:17:28;;;;;;;3.42;1.70;;;11.70;99.90;;;;;;5048435;28;20083;-67
2023/08/31 01:19:56;;;;;;;5.55;1.98;;;11.70;99.90;;;;;;5030924;28;20112;-66
2023/08/31 01:22:33;;;;;;;2.45;1.45;;;11.70;99.90;;;;;;5030767;28;20072;-67
2023/08/31 01:25:04;;;;;;;2.55;1.45;;;11.60;99.90;;;;;;5014490;28;20146;-67
2023/08/31 01:27:32;;;;;;;3.80;1.40;;;11.60;99.90;;;;;;5030698;28;20037;-68
2023/08/31 01:29:58;;;;;;;2.92;1.33;;;11.60;99.90;;;;;;5032646;28;20057;-67
2023/08/31 01:32:24;;;;;;;4.85;1.60;;;11.60;99.90;;;;;;5035067;28;20462;-67
2023/08/31 01:34:52;;;;;;;5.15;1.75;;;11.60;99.90;;;;;;5067502;28;20066;-66
2023/08/31 01:37:26;;;;;;;4.00;2.40;;;11.60;99.90;;;;;;5052311;28;20084;-67
2023/08/31 01:40:16;;;;;;;4.97;2.35;;;11.50;99.90;;;;;;5028228;28;20107;-66
2023/08/31 01:42:43;;;;;;;7.25;2.60;;;11.50;99.90;;;;;;5066784;27;20083;-67
2023/08/31 01:45:13;;;;;;;4.40;2.80;;;11.50;99.90;;;;;;5112996;28;20039;-67
2023/08/31 01:47:38;;;;;;;7.07;3.22;;;11.50;99.90;;;;;;5112788;28;20105;-67
2023/08/31 01:50:04;;;;;;;8.30;2.80;;;11.50;99.90;;;;;;5096107;28;20436;-67
2023/08/31 01:52:30;;;;;;;4.82;2.95;;;11.50;99.90;;;;;;5113761;27;20054;-68
2023/08/31 01:54:56;;;;;;;3.80;2.40;;;11.50;99.90;;;;;;5112809;28;20047;-66
2023/08/31 01:57:23;;;;;;;3.58;2.50;;;11.50;99.90;;;;;;5112908;28;20448;-67
2023/08/31 01:59:48;;;;;;;4.80;2.67;;;11.50;99.90;;;;;;5112734;28;20100;-67
2023/08/31 02:02:14;;;;;;;3.67;2.40;;;11.40;99.90;;;;;;5098205;28;20043;-68
2023/08/31 02:04:42;;;;;;;3.75;2.40;;;11.40;99.90;;;;;;5112794;27;20517;-66
2023/08/31 02:07:08;;;;;;;3.30;2.10;;;11.40;99.90;;;;;;5112157;28;20149;-67
2023/08/31 02:09:33;;;;;;;3.53;2.13;;;11.40;99.90;;;;;;5112431;28;20047;-66
2023/08/31 02:11:59;;;;;;;3.45;1.90;;;11.30;99.90;;;;;;5114489;27;20410;-67
2023/08/31 02:14:25;;;;;;;2.97;1.70;;;11.30;99.90;;;;;;5112346;28;20079;-65
2023/08/31 02:16:50;;;;;;;5.15;1.85;;;11.30;99.90;;;;;;5112127;28;20387;-68
2023/08/31 02:19:16;;;;;;;2.30;1.52;;;11.30;99.90;;;;;;5112203;28;20043;-66
2023/08/31 02:21:41;;;;;;;2.45;1.80;;;11.30;99.90;;;;;;5113508;27;20402;-67
2023/08/31 02:24:07;;;;;;;2.42;1.80;;;11.20;99.90;;;;;;5112146;28;20061;-68
2023/08/31 02:26:36;;;;;;;3.08;1.50;;;11.20;99.90;;;;;;5130731;27;20032;-66
2023/08/31 02:29:02;;;;;;;5.35;1.50;;;11.20;99.90;;;;;;5132704;27;20050;-67
2023/08/31 02:31:28;;;;;;;2.03;1.17;;;11.20;99.90;;;;;;5115226;27;20058;-66
2023/08/31 02:33:53;;;;;;;3.50;1.33;;;11.10;99.90;;;;;;5118374;27;20047;-65
2023/08/31 02:36:20;;;;;;;1.77;1.10;;;11.20;99.90;;;;;;5111774;28;20127;-67
2023/08/31 02:38:46;;;;;;;1.40;1.02;;;11.10;99.90;;;;;;5111647;28;20469;-66
2023/08/31 02:41:12;;;;;;;1.52;1.00;;;11.10;99.90;;;;;;5094823;28;20032;-67
2023/08/31 02:43:39;;;;;;;1.88;1.30;;;11.10;99.90;;;;;;5114510;27;20145;-66
2023/08/31 02:46:04;;;;;;;2.10;1.23;;;11.00;99.90;;;;;;5112028;27;20039;-66
2023/08/31 02:48:32;;;;;;;2.15;1.40;;;11.10;99.90;;;;;;5130876;27;20403;-67
2023/08/31 02:51:00;;;;;;;2.05;1.50;;;11.10;99.90;;;;;;5132048;27;20042;-66
2023/08/31 02:53:27;;;;;;;5.30;1.40;;;11.10;99.90;;;;;;5131870;27;20507;-66
2023/08/31 02:55:53;;;;;;;1.77;1.50;;;11.10;99.90;;;;;;5094620;28;20518;-66
2023/08/31 02:58:19;;;;;;;4.53;1.63;;;11.10;99.90;;;;;;5111457;28;20027;-66
2023/08/31 03:00:47;;;;;;;1.67;1.55;;;11.10;99.90;;;;;;5111408;28;20055;-67
2023/08/31 03:03:14;;;;;;;2.22;1.70;;;11.10;99.90;;;;;;5111487;28;20035;-66
2023/08/31 03:05:40;;;;;;;2.63;1.67;;;11.10;99.90;;;;;;5127186;27;20118;-68
2023/08/31 03:08:05;;;;;;;4.32;2.40;;;11.10;99.90;;;;;;5119419;27;20122;-67
2023/08/31 03:10:31;;;;;;;2.97;2.10;;;11.10;99.90;;;;;;5110201;28;20457;-66
2023/08/31 03:12:57;;;;;;;3.30;2.78;;;11.10;99.90;;;;;;5110785;28;20497;-66
2023/08/31 03:15:23;;;;;;;2.92;2.53;;;11.10;99.90;;;;;;5092249;28;20035;-67
2023/08/31 03:17:48;;;;;;;3.70;2.22;;;11.10;99.90;;;;;;5110556;28;20122;-68
2023/08/31 03:20:14;;;;;;;3.33;2.75;;;11.10;99.90;;;;;;5109841;28;20122;-67
2023/08/31 03:22:40;;;;;;;3.33;2.95;;;11.10;99.90;;;;;;5109516;28;20039;-66
2023/08/31 03:25:06;;;;;;;4.43;2.97;;;11.10;99.90;;;;;;5109747;28;20023;-67
2023/08/31 03:27:31;;;;;;;4.57;3.75;;;11.10;99.90;;;;;;5092579;28;20039;-67
2023/08/31 03:29:57;;;;;;;3.60;3.30;;;11.00;99.90;;;;;;5108836;28;20036;-66
2023/08/31 03:32:23;;;;;;;4.45;3.20;;;11.00;99.90;;;;;;5109728;28;20031;-66
2023/08/31 03:34:49;;;;;;;5.10;3.90;;;11.00;99.90;;;;;;5109358;28;20543;-66
2023/08/31 03:37:14;;;;;;;4.47;3.80;;;11.00;99.90;;;;;;5109451;27;20470;-66
2023/08/31 03:39:41;;;;;;;5.53;3.80;;;11.00;99.90;;;;;;5109188;28;20043;-65
2023/08/31 03:42:07;;;;;;;6.13;4.10;;;11.00;99.90;;;;;;5110787;28;20040;-67
2023/08/31 03:44:32;;;;;;;5.07;4.13;;;11.00;99.90;;;;;;5091833;28;20083;-67
2023/08/31 03:46:58;;;;;;;6.85;3.97;;;11.00;99.90;;;;;;5108575;27;20031;-66
2023/08/31 03:49:24;;;;;;;6.45;4.38;;;11.00;99.90;;;;;;5109398;28;20051;-66
2023/08/31 03:51:50;;;;;;;6.28;4.40;;;11.00;99.90;;;;;;5108463;28;20062;-66
2023/08/31 03:54:16;;;;;;;5.28;4.38;;;11.00;99.90;;;;;;5092540;28;20043;-66
2023/08/31 03:56:41;;;;;;;4.90;4.10;;;11.10;99.90;;;;;;5109847;28;20517;-67
2023/08/31 03:59:07;;;;;;;5.93;4.00;;;11.10;99.90;;;;;;5107865;28;20440;-67
2023/08/31 04:01:33;;;;;;;4.88;3.38;;;11.00;99.90;;;;;;5091939;28;20076;-66
2023/08/31 04:03:58;;;;;;;5.05;4.03;;;11.00;99.90;;;;;;5108516;28;20035;-65
2023/08/31 04:06:24;;;;;;;5.78;3.30;;;11.00;99.90;;;;;;5108318;28;20035;-68
2023/08/31 04:08:50;;;;;;;4.85;3.20;;;11.10;99.90;;;;;;5111167;27;20074;-67
2023/08/31 04:11:15;;;;;;;5.07;3.50;;;11.10;99.90;;;;;;5109152;27;20059;-66
2023/08/31 04:13:41;;;;;;;4.13;3.03;;;11.10;99.90;;;;;;5108829;28;20079;-67
2023/08/31 04:16:07;;;;;;;4.70;3.30;;;11.10;99.90;;;;;;5109644;28;20031;-66
2023/08/31 04:18:32;;;;;;;8.07;3.22;;;11.10;99.90;;;;;;5110353;27;20038;-67
2023/08/31 04:21:00;;;;;;;4.88;2.95;;;11.10;99.90;;;;;;5113315;27;20047;-66
2023/08/31 04:23:25;;;;;;;3.83;2.60;;;11.10;99.90;;;;;;5109843;28;20129;-67
2023/08/31 04:25:53;;;;;;;5.15;2.50;;;11.10;99.90;;;;;;5109930;28;20405;-66
2023/08/31 04:28:18;;;;;;;5.07;2.50;;;11.10;99.90;;;;;;5109658;28;20402;-66
2023/08/31 04:30:44;;;;;;;4.25;2.65;;;11.20;99.90;;;;;;5113240;27;20035;-67
2023/08/31 04:33:10;;;;;;;8.32;3.17;;;11.20;99.90;;;;;;5110420;27;20039;-66
2023/08/31 04:35:36;;;;;;;5.22;2.67;;;11.30;99.90;;;;;;5109624;28;20130;-68
2023/08/31 04:38:01;;;;;;;6.53;3.05;;;11.30;99.90;;;;;;5112092;27;20036;-67
2023/08/31 04:40:29;;;;;;;3.70;2.65;;;11.30;99.90;;;;;;5130055;27;20042;-67
2023/08/31 04:42:55;;;;;;;5.80;2.65;;;11.30;99.90;;;;;;5130634;27;20432;-66
2023/08/31 04:45:20;;;;;;;5.22;3.08;;;11.40;99.90;;;;;;5131093;27;20038;-67
2023/08/31 04:47:46;;;;;;;6.22;3.20;;;11.40;99.90;;;;;;5113213;28;20050;-68
2023/08/31 04:50:12;;;;;;;6.43;3.20;;;11.30;99.90;;;;;;5129765;27;20035;-66
2023/08/31 04:52:37;;;;;;;7.43;3.15;;;11.40;99.90;;;;;;5102930;28;20051;-67
2023/08/31 04:55:07;;;;;;;5.60;3.63;;;11.40;99.90;;;;;;5109562;28;20051;-66
2023/08/31 04:57:33;;;;;;;6.07;3.47;;;11.40;99.90;;;;;;5129226;27;20031;-67
2023/08/31 04:59:59;;;;;;;7.30;4.00;;;11.40;99.90;;;;;;5122971;27;20031;-68
2023/08/31 05:02:24;;;;;;;5.60;4.28;;;11.40;99.90;;;;;;5109589;28;20050;-68
2023/08/31 05:04:50;;;;;;;11.27;4.70;;;11.40;99.90;;;;;;5109473;28;20038;-68
2023/08/31 05:07:16;;;;;;;6.78;4.30;;;11.40;99.90;;;;;;5091716;28;20036;-67
2023/08/31 05:09:42;;;;;;;7.22;4.60;;;11.40;99.90;;;;;;5110177;28;20048;-68
2023/08/31 05:12:08;;;;;;;7.18;4.95;;;11.40;99.90;;;;;;5111419;27;20035;-68
2023/08/31 05:14:37;;;;;;;8.35;4.35;;;11.40;99.90;;;;;;5096410;28;20492;-67
2023/08/31 05:17:04;;;;;;;7.72;4.55;;;11.40;99.90;;;;;;5114880;28;20057;-67
2023/08/31 05:19:30;;;;;;;7.80;5.03;;;11.50;99.90;;;;;;5096393;28;20047;-67
2023/08/31 05:21:56;;;;;;;6.90;5.55;;;11.50;99.90;;;;;;5115024;27;20032;-66
2023/08/31 05:24:22;;;;;;;7.72;4.72;;;11.50;99.90;;;;;;5122417;27;20126;-66
2023/08/31 05:26:49;;;;;;;14.75;5.70;;;11.50;99.90;;;;;;5133857;27;20412;-67
2023/08/31 05:29:17;;;;;;;10.60;5.28;;;11.60;99.90;;;;;;5134186;27;20546;-67
2023/08/31 05:31:46;;;;;;;7.27;5.10;;;11.60;99.90;;;;;;5134049;27;20073;-68
2023/08/31 05:34:17;;;;;;;5.95;5.35;;;11.60;99.90;;;;;;5131326;27;20350;-72
2023/08/31 05:36:43;;;;;;;8.48;5.60;;;11.70;99.90;;;;;;5113740;27;20055;-66
2023/08/31 05:39:09;;;;;;;10.35;5.40;;;11.80;99.90;;;;;;5133172;27;20152;-68
2023/08/31 05:41:35;;;;;;;10.43;5.47;;;11.80;99.90;;;;;;5114486;27;20039;-68
2023/08/31 05:44:01;;;;;;;8.88;5.47;;;11.90;99.90;;;;;;5112892;28;20497;-66
2023/08/31 05:46:27;;;;;;;6.03;5.40;;;12.00;99.90;;;;;;5113188;28;20401;-66
2023/08/31 05:48:52;;;;;;;8.65;5.38;;;12.10;99.90;;;;;;5130617;27;20039;-67
2023/08/31 05:51:18;;;;;;;8.60;5.10;;;12.10;99.90;;;;;;5115927;27;20555;-67
2023/08/31 05:53:44;;;;;;;6.97;5.20;;;12.20;99.90;;;;;;5114482;27;20044;-66
2023/08/31 05:56:09;;;;;;;6.22;4.85;;;12.20;99.90;;;;;;5131911;27;20389;-66
2023/08/31 05:58:36;;;;;;;8.40;4.25;;;12.20;99.90;;;;;;5133002;27;20042;-68
2023/08/31 06:01:03;;;;;;;9.20;4.53;;;12.20;99.90;;;;;;5118896;27;20035;-68
2023/08/31 06:03:29;;;;;;;8.85;4.13;;;12.20;99.90;;;;;;5132565;27;20172;-68
2023/08/31 06:05:56;;;;;;;8.40;4.35;;;12.20;99.90;;;;;;5106231;27;20143;-69
2023/08/31 06:08:22;;;;;;;6.47;4.00;;;12.30;99.90;;;;;;5121165;27;20126;-67
2023/08/31 06:10:48;;;;;;;6.05;4.07;;;12.30;99.90;;;;;;5120592;27;20196;-66
2023/08/31 06:13:13;;;;;;;6.63;4.18;;;12.40;99.90;;;;;;5121034;27;20039;-68
2023/08/31 06:15:39;;;;;;;6.40;3.78;;;12.40;99.90;;;;;;5122362;27;20112;-67
2023/08/31 06:18:05;;;;;;;7.32;3.60;;;12.50;99.90;;;;;;5122411;27;20039;-68
2023/08/31 06:20:31;;;;;;;5.13;3.75;;;12.40;99.90;;;;;;5122760;27;20039;-67
2023/08/31 06:22:57;;;;;;;7.07;4.07;;;12.40;99.90;;;;;;5103838;27;20049;-67
2023/08/31 06:25:22;;;;;;;6.90;3.90;;;12.40;99.90;;;;;;5125456;27;20494;-67
2023/08/31 06:27:48;;;;;;;9.27;4.65;;;12.40;99.90;;;;;;5126350;27;20499;-67
2023/08/31 06:30:17;;;;;;;4.95;4.28;;;12.40;99.90;;;;;;5126727;27;20100;-67
2023/08/31 06:32:47;;;;;;;6.55;4.00;;;12.40;99.90;;;;;;5132856;27;20065;-67
2023/08/31 06:35:13;;;;;;;9.13;4.25;;;12.40;99.90;;;;;;5132970;27;20122;-68
2023/08/31 06:37:39;;;;;;;8.30;3.70;;;12.40;99.90;;;;;;5132578;27;20047;-66
2023/08/31 06:40:09;;;;;;;8.70;3.90;;;12.50;99.90;;;;;;5132310;27;20561;-68
2023/08/31 06:42:39;;;;;;;7.65;4.00;;;12.50;99.90;;;;;;5132586;27;20034;-68
2023/08/31 06:45:07;;;;;;;5.85;3.47;;;12.60;99.90;;;;;;5132286;27;20039;-68
2023/08/31 06:47:33;;;;;;;9.63;4.15;;;12.70;99.90;;;;;;5132891;27;20034;-66
2023/08/31 06:49:59;;;;;;;5.65;3.53;;;12.90;99.90;;;;;;5132441;27;20431;-66
2023/08/31 06:52:26;;;;;;;7.95;3.40;;;13.10;99.90;;;;;;5132367;27;20083;-67
2023/08/31 06:54:55;;;;;;;6.43;3.30;;;13.30;99.90;;;;;;5132054;27;20091;-67
2023/08/31 06:57:25;;;;;;;5.22;2.95;;;13.40;99.90;;;;;;5132268;27;20087;-68
2023/08/31 06:59:51;;;;;;;6.43;2.53;;;13.60;99.90;;;;;;5131975;27;20508;-67
2023/08/31 07:02:16;;;;;;;5.57;2.42;;;13.70;99.90;;;;;;5132515;27;20474;-68
2023/08/31 07:04:43;;;;;;;4.55;2.45;;;13.90;99.90;;;;;;5129088;27;20099;-67
2023/08/31 07:07:08;;;;;;;6.25;2.20;;;14.20;99.90;;;;;;5114003;27;20039;-68
2023/08/31 07:09:34;;;;;;;7.30;2.50;;;14.30;99.90;;;;;;5126180;27;20086;-67
2023/08/31 07:12:03;;;;;;;4.43;1.90;;;14.30;99.90;;;;;;5124434;27;20035;-68
2023/08/31 07:14:29;;;;;;;4.18;1.67;;;14.20;99.90;;;;;;5114435;27;20077;-69
2023/08/31 07:16:55;;;;;;;3.83;1.83;;;14.10;99.90;;;;;;5121896;27;20067;-69
2023/08/31 07:19:20;;;;;;;6.20;2.13;;;14.10;99.90;;;;;;5113767;27;20252;-68
2023/08/31 07:21:48;;;;;;;4.03;1.80;;;14.10;99.90;;;;;;5108890;28;20058;-67
2023/08/31 07:24:14;;;;;;;6.53;1.92;;;14.10;99.90;;;;;;5110155;28;20490;-67
2023/08/31 07:26:40;;;;;;;5.20;1.70;;;14.10;99.90;;;;;;5110425;28;20040;-69
2023/08/31 07:29:05;;;;;;;4.43;1.63;;;14.10;99.90;;;;;;5110504;28;20058;-68
2023/08/31 07:31:31;;;;;;;5.05;1.67;;;14.30;99.90;;;;;;5110741;28;20489;-67
2023/08/31 07:33:57;;;;;;;5.95;1.63;;;14.40;99.90;;;;;;5110463;28;20385;-67
2023/08/31 07:36:24;;;;;;;3.55;1.30;;;14.60;99.90;;;;;;5110766;28;20035;-67
2023/08/31 07:38:49;;;;;;;3.53;1.15;;;14.80;99.90;;;;;;5110938;28;20071;-68
2023/08/31 07:41:15;;;;;;;3.35;0.70;;;15.00;99.90;;;;;;5111101;28;20179;-68
2023/08/31 07:43:41;;;;;;;2.88;1.02;;;15.20;99.90;;;;;;5111176;28;20593;-67
2023/08/31 07:46:06;;;;;;;5.32;0.90;;;15.40;99.90;;;;;;5111246;28;20042;-68
2023/08/31 07:48:32;;;;;;;4.63;0.90;;;15.50;99.90;;;;;;5112182;28;20118;-67
2023/08/31 07:50:57;;;;;;;2.95;0.80;;;15.60;99.90;;;;;;5110869;28;20397;-68
2023/08/31 07:53:23;;;;;;;2.45;0.70;;;15.70;99.90;;;;;;5110962;28;20473;-68
2023/08/31 07:55:59;;;;;;;2.85;0.75;;;15.90;99.90;;;;;;5111043;28;20065;-68
2023/08/31 07:58:26;;;;;;;2.80;0.75;;;16.00;99.90;;;;;;5126920;27;20027;-68
2023/08/31 08:00:55;;;;;;;4.50;0.70;;;16.10;99.90;;;;;;5131302;27;20058;-67
2023/08/31 08:03:22;;;;;;;3.30;0.70;;;16.10;99.90;;;;;;5131603;27;20034;-67
2023/08/31 08:05:48;;;;;;;2.28;0.63;;;16.20;99.90;;;;;;5130999;27;20035;-69
2023/08/31 08:08:14;;;;;;;2.85;0.55;;;16.40;99.90;;;;;;5130957;27;20086;-69
2023/08/31 08:10:39;;;;;;;3.17;0.65;;;16.40;99.90;;;;;;5113700;27;20047;-68
2023/08/31 08:13:05;;;;;;;1.60;0.55;;;16.50;99.90;;;;;;5113834;27;20074;-68
2023/08/31 08:15:31;;;;;;;1.10;0.40;;;16.70;99.90;;;;;;5130909;27;20069;-67
2023/08/31 08:17:57;;;;;;;1.77;0.60;;;16.80;99.90;;;;;;5130889;27;20039;-67
2023/08/31 08:20:23;;;;;;;1.65;0.40;;;16.60;99.90;;;;;;5131014;27;20039;-68
2023/08/31 08:22:52;;;;;;;2.92;0.68;;;16.50;99.90;;;;;;5130691;27;20050;-67
2023/08/31 08:25:21;;;;;;;2.97;0.60;;;16.20;99.90;;;;;;5130890;27;20474;-68
2023/08/31 08:27:47;;;;;;;1.73;0.50;;;16.10;99.90;;;;;;5113073;27;20410;-68
2023/08/31 08:30:15;;;;;;;3.80;0.70;;;15.90;99.90;;;;;;5130659;27;20039;-69
2023/08/31 08:32:41;;;;;;;2.45;0.60;;;15.80;99.90;;;;;;5130634;27;20394;-68
2023/08/31 08:35:07;;;;;;;3.67;0.98;;;15.70;99.90;;;;;;5130805;27;20473;-69
2023/08/31 08:37:33;;;;;;;3.70;0.90;;;15.60;99.90;;;;;;5130632;27;20035;-68
2023/08/31 08:39:59;;;;;;;3.63;0.88;;;15.60;99.90;;;;;;5130437;27;20448;-67
2023/08/31 08:42:25;;;;;;;3.47;0.75;;;15.50;99.90;;;;;;5113459;27;20042;-68
2023/08/31 08:44:51;;;;;;;4.18;0.73;;;15.50;99.90;;;;;;5131755;27;20031;-68
2023/08/31 08:47:18;;;;;;;3.45;0.70;;;15.40;99.90;;;;;;5130389;27;20035;-70
2023/08/31 08:49:44;;;;;;;1.13;0.52;;;15.30;99.90;;;;;;5130405;27;20120;-68
2023/08/31 08:52:11;;;;;;;2.20;0.60;;;15.20;99.90;;;;;;5130620;27;20474;-69
2023/08/31 08:54:37;;;;;;;3.63;1.02;;;15.10;99.90;;;;;;5130388;27;20047;-69
2023/08/31 08:57:03;;;;;;;3.47;0.68;;;15.00;99.90;;;;;;5131471;27;20146;-69
2023/08/31 08:59:30;;;;;;;1.23;0.70;;;15.00;99.90;;;;;;5130260;27;20427;-67
2023/08/31 09:01:56;;;;;;;2.15;0.40;;;15.40;99.90;;;;;;5130170;28;20056;-67
2023/08/31 09:04:22;;;;;;;1.85;0.50;;;15.80;99.90;;;;;;5130546;28;20446;-68
2023/08/31 09:06:48;;;;;;;2.10;0.60;;;16.20;99.90;;;;;;5113715;27;20054;-68
2023/08/31 09:09:13;;;;;;;2.60;0.60;;;16.20;99.90;;;;;;5115906;27;20047;-68
2023/08/31 09:11:39;;;;;;;1.60;0.50;;;16.10;99.90;;;;;;5133653;27;20173;-68
2023/08/31 09:14:16;;;;;;;1.73;0.45;;;16.10;99.90;;;;;;5133520;27;20045;-69
2023/08/31 09:16:48;;;;;;;2.53;0.70;;;16.30;99.90;;;;;;5133805;27;20493;-68
2023/08/31 09:19:18;;;;;;;;;;;16.60;99.90;;;;;;5133528;27;20062;-67
2023/08/31 09:21:45;;;;;;;2.00;0.50;;;17.00;99.90;;;;;;5133786;27;19923;-67
2023/08/31 09:24:13;;;;;;;3.58;1.02;;;17.00;99.90;;;;;;5133290;27;20043;-68
2023/08/31 09:26:39;;;;;;;1.58;0.65;;;17.00;99.90;;;;;;5133477;27;20046;-67
2023/08/31 09:29:08;;;;;;;2.88;0.65;;;16.90;99.90;;;;;;5133249;27;20050;-68
2023/08/31 09:31:34;;;;;;;2.55;0.60;;;16.90;99.90;;;;;;5133383;27;20065;-68
2023/08/31 09:34:00;;;;;;;1.27;0.60;;;17.10;99.90;;;;;;5115900;27;20043;-68
2023/08/31 09:36:28;;;;;;;3.25;0.45;;;17.40;99.90;;;;;;5133571;27;20067;-68
2023/08/31 09:38:58;;;;;;;1.77;0.57;;;17.60;99.90;;;;;;5133742;27;20483;-68
2023/08/31 09:41:24;;;;;;;3.50;0.50;;;17.40;99.90;;;;;;5133250;27;20042;-68
2023/08/31 09:43:49;;;;;;;2.13;0.70;;;17.60;99.90;;;;;;5133307;27;20035;-69
2023/08/31 09:46:15;;;;;;;1.27;0.40;;;17.70;99.90;;;;;;5133115;27;20038;-68
2023/08/31 09:48:42;;;;;;;1.42;0.40;;;17.60;99.90;;;;;;5133186;27;20382;-68
2023/08/31 09:51:10;;;;;;;1.95;0.50;;;17.70;99.90;;;;;;5133140;27;20026;-68
2023/08/31 09:53:37;;;;;;;2.03;0.68;;;17.80;99.90;;;;;;5133264;27;20042;-68
2023/08/31 09:56:06;;;;;;;1.85;0.50;;;17.70;99.90;;;;;;5133107;27;20053;-68
2023/08/31 09:58:33;;;;;;;1.90;0.50;;;17.50;99.90;;;;;;5117948;27;20038;-68
2023/08/31 10:00:59;;;;;;;2.03;0.47;;;17.40;99.90;;;;;;5119875;27;20051;-69
2023/08/31 10:03:27;;;;;;;3.05;0.70;;;17.40;99.90;;;;;;5136735;27;20038;-68
2023/08/31 10:05:55;;;;;;;1.92;0.60;;;17.30;99.90;;;;;;5136851;27;20035;-68
2023/08/31 10:08:21;;;;;;;1.88;0.60;;;17.40;99.90;;;;;;5119310;27;20050;-68
2023/08/31 10:10:47;;;;;;;1.58;0.60;;;17.50;99.90;;;;;;5137003;27;20173;-68
2023/08/31 10:13:13;;;;;;;1.98;0.60;;;17.30;99.90;;;;;;5136737;27;20031;-68
2023/08/31 10:15:41;;;;;;;3.30;0.70;;;17.20;99.90;;;;;;5136859;27;20117;-67
2023/08/31 10:18:07;;;;;;;2.08;0.77;;;17.40;99.90;;;;;;5136583;27;20039;-68
2023/08/31 10:20:34;;;;;;;2.00;0.73;;;17.80;99.90;;;;;;5136715;27;20078;-69
2023/08/31 10:23:05;;;;;;;1.52;0.63;;;18.00;99.90;;;;;;5136697;27;20035;-67
2023/08/31 10:25:49;;;;;;;4.60;0.95;;;18.00;99.90;;;;;;5136587;27;20046;-68
2023/08/31 10:28:39;;;;;;;3.38;0.60;;;18.00;99.90;;;;;;5136481;27;20393;-68
2023/08/31 10:31:08;;;;;;;2.92;0.50;;;17.60;99.90;;;;;;5136470;27;20034;-68
2023/08/31 10:33:39;;;;;;;2.80;0.70;;;17.40;99.90;;;;;;5136183;27;20042;-67
2023/08/31 10:36:19;;;;;;;3.45;0.70;;;17.10;99.90;;;;;;5136442;27;20102;-67
2023/08/31 10:38:46;;;;;;;4.22;1.17;;;16.80;99.90;;;;;;5136219;27;21130;-67
2023/08/31 10:41:12;;;;;;;4.13;0.93;;;16.60;99.90;;;;;;5136310;27;20039;-68
2023/08/31 10:43:51;;;;;;;4.03;0.90;;;16.50;99.90;;;;;;5118891;27;20037;-68
2023/08/31 10:46:37;;;;;;;2.42;0.63;;;16.40;99.90;;;;;;5136174;27;20043;-67
2023/08/31 10:49:09;;;;;;;2.53;0.60;;;16.30;99.90;;;;;;5136242;27;20404;-67
2023/08/31 10:51:36;;;;;;;1.85;0.52;;;16.20;99.90;;;;;;5135977;27;20079;-69
2023/08/31 10:54:17;;;;;;;3.63;0.77;;;16.20;99.90;;;;;;5136220;27;20400;-69
2023/08/31 10:57:02;;;;;;;3.65;0.60;;;16.20;99.90;;;;;;5135845;27;20049;-67
2023/08/31 10:59:50;;;;;;;4.30;0.75;;;16.20;99.90;;;;;;5135704;27;20030;-68
2023/08/31 11:02:35;;;;;;;3.65;0.85;;;16.20;99.90;;;;;;5135880;27;20035;-69
2023/08/31 11:05:04;;;;;;;2.72;0.85;;;16.10;99.90;;;;;;5135855;27;20031;-68
2023/08/31 11:07:30;;;;;;;2.47;0.60;;;16.10;99.90;;;;;;5135293;27;20046;-69
2023/08/31 11:10:10;;;;;;;2.90;0.90;;;16.10;99.90;;;;;;5134081;27;20127;-69
2023/08/31 11:12:36;;;;;;;1.88;0.65;;;16.00;99.90;;;;;;5135534;27;20134;-68
2023/08/31 11:15:03;;;;;;;4.40;0.75;;;15.90;99.90;;;;;;5135756;27;20069;-67
2023/08/31 11:17:29;;;;;;;3.03;0.70;;;15.80;99.90;;;;;;5135824;27;20074;-68
2023/08/31 11:19:56;;;;;;;3.05;0.65;;;15.60;99.90;;;;;;5135396;27;20958;-68
2023/08/31 11:22:22;;;;;;;1.77;0.70;;;15.40;99.90;;;;;;5135486;27;20039;-68
2023/08/31 11:24:48;;;;;;;1.25;0.40;;;15.30;99.90;;;;;;5135249;27;20094;-68
2023/08/31 11:27:14;;;;;;;1.35;0.50;;;15.00;99.90;;;;;;5135273;27;20042;-67
2023/08/31 11:29:44;;;;;;;2.22;0.40;;;14.80;99.90;;;;;;5117631;27;20058;-68
2023/08/31 11:32:10;;;;;;;0.98;0.45;;;14.70;99.90;;;;;;5135251;27;20117;-68
2023/08/31 11:34:41;;;;;;;0.82;0.40;;;14.60;99.90;;;;;;5135148;27;20167;-67
2023/08/31 11:37:07;;;;;;;0.90;0.40;;;14.70;99.90;;;;;;5118042;27;20038;-68
2023/08/31 11:39:33;;;;;;;1.30;0.40;;;14.80;99.90;;;;;;5135190;27;20031;-69
2023/08/31 11:41:59;;;;;;;2.40;0.40;;;15.00;99.90;;;;;;5117212;27;20058;-68
2023/08/31 11:44:25;;;;;;;1.35;0.40;;;15.20;99.90;;;;;;5117357;27;20047;-68
2023/08/31 11:46:52;;;;;;;2.20;0.30;;;15.30;99.90;;;;;;5134729;27;20098;-68
2023/08/31 11:49:18;;;;;;;2.50;0.30;;;15.70;99.90;;;;;;5134890;27;20049;-68
2023/08/31 11:51:46;;;;;;;2.45;0.50;;;16.10;99.90;;;;;;5134742;27;20079;-68
2023/08/31 11:54:11;;;;;;;1.27;0.40;;;16.20;99.90;;;;;;5135003;27;20539;-68
2023/08/31 11:56:48;;;;;;;4.95;0.77;;;16.20;99.90;;;;;;5134978;27;20126;-67
2023/08/31 11:59:20;;;;;;;2.53;0.50;;;16.10;99.90;;;;;;5134562;27;20469;-67
2023/08/31 12:01:50;;;;;;;3.72;0.80;;;16.00;99.90;;;;;;5134557;27;20039;-68
2023/08/31 12:04:19;;;;;;;2.05;0.63;;;16.00;99.90;;;;;;5134778;27;20385;-67
2023/08/31 12:06:50;;;;;;;3.03;0.80;;;15.90;99.90;;;;;;5134500;27;20542;-67
2023/08/31 12:09:16;;;;;;;2.58;0.70;;;15.80;99.90;;;;;;5134428;27;20121;-68
2023/08/31 12:11:49;;;;;;;2.58;0.57;;;15.80;99.90;;;;;;5134433;27;20058;-68
2023/08/31 12:14:19;;;;;;;;;;;15.60;99.90;;;;;;5134889;27;20053;-67
2023/08/31 12:16:44;;;;;;;3.45;1.20;;;15.60;99.90;;;;;;5117359;27;19925;-68
2023/08/31 12:19:10;;;;;;;2.25;0.70;;;15.50;99.90;;;;;;5134217;27;20459;-68
2023/08/31 12:21:36;;;;;;;1.30;0.70;;;15.50;99.90;;;;;;5134165;27;20047;-67
2023/08/31 12:24:03;;;;;;;3.60;0.80;;;15.50;99.90;;;;;;5116555;27;20057;-68
2023/08/31 12:26:29;;;;;;;4.95;0.80;;;15.60;99.90;;;;;;5134346;27;20094;-68
2023/08/31 12:28:54;;;;;;;3.55;0.90;;;15.80;99.90;;;;;;5133957;27;20067;-68
2023/08/31 12:31:22;;;;;;;3.28;0.88;;;16.00;99.90;;;;;;5134168;27;20454;-68
2023/08/31 12:33:48;;;;;;;3.35;1.00;;;16.10;99.90;;;;;;5134417;27;20401;-68
2023/08/31 12:36:13;;;;;;;2.83;0.88;;;16.20;99.90;;;;;;5133889;27;20046;-67
2023/08/31 12:38:39;;;;;;;1.90;0.70;;;16.40;99.90;;;;;;5134204;27;20035;-67
2023/08/31 12:41:05;;;;;;;2.38;0.65;;;16.60;99.90;;;;;;5133647;27;20106;-67
2023/08/31 12:43:31;;;;;;;3.00;0.60;;;16.80;99.90;;;;;;5133959;27;20034;-67
2023/08/31 12:45:57;;;;;;;1.35;0.60;;;17.00;99.90;;;;;;5133708;27;20045;-68
2023/08/31 12:48:23;;;;;;;2.30;0.80;;;17.30;99.90;;;;;;5134405;27;20164;-67
2023/08/31 12:50:49;;;;;;;2.40;0.70;;;17.60;99.90;;;;;;5133924;27;20129;-68